Salzburg/freisaal, Austria

3:52 PM CET on January 23, 2017 (GMT +0100)
Kobergerweg | | Change Station

Elev 1417 ft 47.78 °N, 13.04 °E | Updated 4 minutes ago

Clear
Clear
25.0 °F
Feels Like 25 °F
N
0.6
Wind Variable Wind from SSE
Gusts 1.9 mph

Today
High -- | Low -- °F
--% Chance of Precip.
Yesterday
High -- | Low -- °F
Precip. -- in
Pressure 30.18 in
Visibility 1.9 miles
Clouds Clear
Windchill 25 °F
Dew Point 19 °F
Humidity 77%
Rainfall in
Snow Depth Not available.
7:45 AM 4:54 PM
Waning Crescent, 18% visible
METAR LOWS 231420Z VRB01KT 3000 FZBR SKC M06/M08 Q1022 TEMPO 5000
Pressure 30.18 in
Visibility 1.9 miles
Clouds Clear
Windchill 25 °F
Dew Point 19 °F
Humidity 77%
Rainfall in
Snow Depth Not available.
7:45 AM 4:54 PM
Waning Crescent, 18% visible
METAR LOWS 231420Z VRB01KT 3000 FZBR SKC M06/M08 Q1022 TEMPO 5000

Get Your Daily Forecast Email!

Thanks for signing up!

Be on the lookout for a verification email in your inbox.

You'll start receiving the daily forecast at 8 AM.

×

10-Day Weather Forecast

×

Almanac

Astronomy

Jan. 23, 2017 Rise Set
Actual Time
Civil Twilight
Nautical Twilight
Astronomical Twilight
Moon
Length of Visible Light
Length of Day
Tomorrow will be .
, % of the Moon is Illuminated

Today's Extremes

Country Highs Country Lows

Community

WunderPhotos

Upload Photos

1,962,540 photos uploaded!

WunderBlog® & News

Nearby

Air Quality

  Air Quality AQ Index Pollutant
Not available.

Snow Depth

Station Depth Elevation

Earthquake Activity

City Distance Mag. Time & Date
Minimum magnitude displayed is 2.5.

Coastal Water Temperatures

Place Temperature

Stations

Nearby Weather Stations

Station Location Temp. Windchill Dew Point Humidity Wind Precip. Elev Updated Type